sensor_id;sensor_type;location;lat;lon;timestamp;temperature;humidity
26703;DHT22;14316;51.074;3.704;2023-01-09T00:01:36;6.10;99.90
26703;DHT22;14316;51.074;3.704;2023-01-09T00:04:03;6.20;99.90
26703;DHT22;14316;51.074;3.704;2023-01-09T00:06:29;6.10;99.90
26703;DHT22;14316;51.074;3.704;2023-01-09T00:08:55;6.10;99.90
26703;DHT22;14316;51.074;3.704;2023-01-09T00:11:21;6.10;99.90
26703;DHT22;14316;51.074;3.704;2023-01-09T00:13:47;6.00;99.90
26703;DHT22;14316;51.074;3.704;2023-01-09T00:16:13;6.00;99.90
26703;DHT22;14316;51.074;3.704;2023-01-09T00:18:40;6.10;99.90
26703;DHT22;14316;51.074;3.704;2023-01-09T00:21:07;6.00;99.90
26703;DHT22;14316;51.074;3.704;2023-01-09T00:23:33;6.00;99.90
26703;DHT22;14316;51.074;3.704;2023-01-09T00:26:10;6.10;99.90
26703;DHT22;14316;51.074;3.704;2023-01-09T00:28:36;6.10;99.90
26703;DHT22;14316;51.074;3.704;2023-01-09T00:31:05;6.20;99.90
26703;DHT22;14316;51.074;3.704;2023-01-09T00:33:43;6.30;99.90
26703;DHT22;14316;51.074;3.704;2023-01-09T00:36:10;6.00;99.90
26703;DHT22;14316;51.074;3.704;2023-01-09T00:38:37;6.10;99.90
26703;DHT22;14316;51.074;3.704;2023-01-09T00:41:05;6.10;99.90
26703;DHT22;14316;51.074;3.704;2023-01-09T00:43:35;6.00;99.90
26703;DHT22;14316;51.074;3.704;2023-01-09T00:46:05;6.00;99.90
26703;DHT22;14316;51.074;3.704;2023-01-09T00:48:31;6.00;99.90
26703;DHT22;14316;51.074;3.704;2023-01-09T00:50:58;6.00;99.90
26703;DHT22;14316;51.074;3.704;2023-01-09T00:53:26;6.00;99.90
26703;DHT22;14316;51.074;3.704;2023-01-09T00:55:54;6.10;99.90
26703;DHT22;14316;51.074;3.704;2023-01-09T00:58:21;6.00;99.90
26703;DHT22;14316;51.074;3.704;2023-01-09T01:00:46;6.00;99.90
26703;DHT22;14316;51.074;3.704;2023-01-09T01:03:12;6.00;99.90
26703;DHT22;14316;51.074;3.704;2023-01-09T01:05:37;6.20;99.90
26703;DHT22;14316;51.074;3.704;2023-01-09T01:08:22;6.00;99.90
26703;DHT22;14316;51.074;3.704;2023-01-09T01:10:48;6.00;99.90
26703;DHT22;14316;51.074;3.704;2023-01-09T01:13:14;6.00;99.90
26703;DHT22;14316;51.074;3.704;2023-01-09T01:15:41;6.10;99.90
26703;DHT22;14316;51.074;3.704;2023-01-09T01:18:08;6.10;99.90
26703;DHT22;14316;51.074;3.704;2023-01-09T01:20:34;6.10;99.90
26703;DHT22;14316;51.074;3.704;2023-01-09T01:23:00;6.10;99.90
26703;DHT22;14316;51.074;3.704;2023-01-09T01:25:26;6.10;99.90
26703;DHT22;14316;51.074;3.704;2023-01-09T01:27:52;6.10;99.90
26703;DHT22;14316;51.074;3.704;2023-01-09T01:30:18;6.10;99.90
26703;DHT22;14316;51.074;3.704;2023-01-09T01:32:44;6.20;99.90
26703;DHT22;14316;51.074;3.704;2023-01-09T01:35:11;6.50;99.90
26703;DHT22;14316;51.074;3.704;2023-01-09T01:37:37;6.30;99.90
26703;DHT22;14316;51.074;3.704;2023-01-09T01:40:05;6.30;99.90
26703;DHT22;14316;51.074;3.704;2023-01-09T01:42:32;6.40;99.90
26703;DHT22;14316;51.074;3.704;2023-01-09T01:45:08;6.50;99.90
26703;DHT22;14316;51.074;3.704;2023-01-09T01:50:20;6.20;99.90
26703;DHT22;14316;51.074;3.704;2023-01-09T01:58:51;6.20;99.90
26703;DHT22;14316;51.074;3.704;2023-01-09T02:01:17;6.20;99.90
26703;DHT22;14316;51.074;3.704;2023-01-09T02:03:45;6.20;99.90
26703;DHT22;14316;51.074;3.704;2023-01-09T02:06:11;6.20;99.90
26703;DHT22;14316;51.074;3.704;2023-01-09T02:08:38;6.20;99.90
26703;DHT22;14316;51.074;3.704;2023-01-09T02:11:04;6.20;99.90
26703;DHT22;14316;51.074;3.704;2023-01-09T02:13:32;6.30;99.90
26703;DHT22;14316;51.074;3.704;2023-01-09T02:16:09;6.40;99.90
26703;DHT22;14316;51.074;3.704;2023-01-09T02:24:07;6.50;99.90
26703;DHT22;14316;51.074;3.704;2023-01-09T02:35:22;6.50;99.90
26703;DHT22;14316;51.074;3.704;2023-01-09T02:43:12;6.60;99.90
26703;DHT22;14316;51.074;3.704;2023-01-09T02:45:39;6.50;99.90
26703;DHT22;14316;51.074;3.704;2023-01-09T02:48:10;6.50;99.90
26703;DHT22;14316;51.074;3.704;2023-01-09T02:51:11;6.50;99.90
26703;DHT22;14316;51.074;3.704;2023-01-09T03:02:11;6.40;99.90
26703;DHT22;14316;51.074;3.704;2023-01-09T03:04:51;6.30;99.90
26703;DHT22;14316;51.074;3.704;2023-01-09T03:11:02;6.30;99.90
26703;DHT22;14316;51.074;3.704;2023-01-09T03:14:09;6.40;99.90
26703;DHT22;14316;51.074;3.704;2023-01-09T03:16:31;6.40;99.90
26703;DHT22;14316;51.074;3.704;2023-01-09T03:18:59;6.40;99.90
26703;DHT22;14316;51.074;3.704;2023-01-09T03:21:26;6.40;99.90
26703;DHT22;14316;51.074;3.704;2023-01-09T03:23:59;6.40;99.90
26703;DHT22;14316;51.074;3.704;2023-01-09T03:26:25;6.50;99.90
26703;DHT22;14316;51.074;3.704;2023-01-09T03:28:54;6.50;99.90
26703;DHT22;14316;51.074;3.704;2023-01-09T03:31:20;6.60;99.90
26703;DHT22;14316;51.074;3.704;2023-01-09T03:33:46;6.60;99.90
26703;DHT22;14316;51.074;3.704;2023-01-09T03:36:14;6.60;99.90
26703;DHT22;14316;51.074;3.704;2023-01-09T03:38:40;6.60;99.90
26703;DHT22;14316;51.074;3.704;2023-01-09T03:41:06;6.60;99.90
26703;DHT22;14316;51.074;3.704;2023-01-09T03:43:33;6.90;99.90
26703;DHT22;14316;51.074;3.704;2023-01-09T03:45:58;6.70;99.90
26703;DHT22;14316;51.074;3.704;2023-01-09T03:48:25;6.80;99.90
26703;DHT22;14316;51.074;3.704;2023-01-09T03:50:51;6.70;99.90
26703;DHT22;14316;51.074;3.704;2023-01-09T03:53:19;6.70;99.90
26703;DHT22;14316;51.074;3.704;2023-01-09T03:55:47;6.80;99.90
26703;DHT22;14316;51.074;3.704;2023-01-09T03:58:14;6.80;99.90
26703;DHT22;14316;51.074;3.704;2023-01-09T04:00:41;6.80;99.90
26703;DHT22;14316;51.074;3.704;2023-01-09T04:03:08;6.70;99.90
26703;DHT22;14316;51.074;3.704;2023-01-09T04:05:34;6.70;99.90
26703;DHT22;14316;51.074;3.704;2023-01-09T04:08:01;6.80;99.90
26703;DHT22;14316;51.074;3.704;2023-01-09T04:10:27;6.70;99.90
26703;DHT22;14316;51.074;3.704;2023-01-09T04:12:53;6.70;99.90
26703;DHT22;14316;51.074;3.704;2023-01-09T04:15:18;6.80;99.90
26703;DHT22;14316;51.074;3.704;2023-01-09T04:17:44;6.70;99.90
26703;DHT22;14316;51.074;3.704;2023-01-09T04:20:11;6.80;99.90
26703;DHT22;14316;51.074;3.704;2023-01-09T04:22:37;6.70;99.90
26703;DHT22;14316;51.074;3.704;2023-01-09T04:25:03;6.70;99.90
26703;DHT22;14316;51.074;3.704;2023-01-09T04:27:29;6.70;99.90
26703;DHT22;14316;51.074;3.704;2023-01-09T04:29:54;6.90;99.90
26703;DHT22;14316;51.074;3.704;2023-01-09T04:32:21;6.60;99.90
26703;DHT22;14316;51.074;3.704;2023-01-09T04:34:46;6.90;99.90
26703;DHT22;14316;51.074;3.704;2023-01-09T04:37:13;6.70;99.90
26703;DHT22;14316;51.074;3.704;2023-01-09T04:39:39;6.60;99.90
26703;DHT22;14316;51.074;3.704;2023-01-09T04:42:08;6.50;99.90
26703;DHT22;14316;51.074;3.704;2023-01-09T04:44:34;6.60;99.90
26703;DHT22;14316;51.074;3.704;2023-01-09T04:47:00;6.50;99.90
26703;DHT22;14316;51.074;3.704;2023-01-09T04:49:26;6.50;99.90
26703;DHT22;14316;51.074;3.704;2023-01-09T04:51:52;6.50;99.90
26703;DHT22;14316;51.074;3.704;2023-01-09T04:54:18;6.50;99.90
26703;DHT22;14316;51.074;3.704;2023-01-09T04:56:44;6.50;99.90
26703;DHT22;14316;51.074;3.704;2023-01-09T04:59:10;6.50;99.90
26703;DHT22;14316;51.074;3.704;2023-01-09T05:01:37;6.50;99.90
26703;DHT22;14316;51.074;3.704;2023-01-09T05:04:03;6.50;99.90
26703;DHT22;14316;51.074;3.704;2023-01-09T05:06:29;6.50;99.90
26703;DHT22;14316;51.074;3.704;2023-01-09T05:08:56;6.60;99.90
26703;DHT22;14316;51.074;3.704;2023-01-09T05:11:22;6.60;99.90
26703;DHT22;14316;51.074;3.704;2023-01-09T05:13:48;6.60;99.90
26703;DHT22;14316;51.074;3.704;2023-01-09T05:16:14;6.50;99.90
26703;DHT22;14316;51.074;3.704;2023-01-09T05:18:40;6.60;99.90
26703;DHT22;14316;51.074;3.704;2023-01-09T05:21:05;6.70;99.90
26703;DHT22;14316;51.074;3.704;2023-01-09T05:23:31;6.70;99.90
26703;DHT22;14316;51.074;3.704;2023-01-09T05:25:57;7.10;99.90
26703;DHT22;14316;51.074;3.704;2023-01-09T05:28:23;6.80;99.90
26703;DHT22;14316;51.074;3.704;2023-01-09T05:30:48;6.80;99.90
26703;DHT22;14316;51.074;3.704;2023-01-09T05:33:14;6.90;99.90
26703;DHT22;14316;51.074;3.704;2023-01-09T05:35:40;6.90;99.90
26703;DHT22;14316;51.074;3.704;2023-01-09T05:38:06;6.80;99.90
26703;DHT22;14316;51.074;3.704;2023-01-09T05:40:32;6.80;99.90
26703;DHT22;14316;51.074;3.704;2023-01-09T05:42:58;6.80;99.90
26703;DHT22;14316;51.074;3.704;2023-01-09T05:45:24;6.80;99.90
26703;DHT22;14316;51.074;3.704;2023-01-09T05:47:51;6.80;99.90
26703;DHT22;14316;51.074;3.704;2023-01-09T05:50:17;6.80;99.90
26703;DHT22;14316;51.074;3.704;2023-01-09T05:52:43;6.80;99.90
26703;DHT22;14316;51.074;3.704;2023-01-09T05:55:10;6.80;99.90
26703;DHT22;14316;51.074;3.704;2023-01-09T05:57:37;6.80;99.90
26703;DHT22;14316;51.074;3.704;2023-01-09T06:00:04;7.00;99.90
26703;DHT22;14316;51.074;3.704;2023-01-09T06:02:30;6.90;99.90
26703;DHT22;14316;51.074;3.704;2023-01-09T06:04:55;7.00;99.90
26703;DHT22;14316;51.074;3.704;2023-01-09T06:07:21;7.00;99.90
26703;DHT22;14316;51.074;3.704;2023-01-09T06:09:47;7.00;99.90
26703;DHT22;14316;51.074;3.704;2023-01-09T06:12:13;7.10;99.90
26703;DHT22;14316;51.074;3.704;2023-01-09T06:14:39;7.20;99.90
26703;DHT22;14316;51.074;3.704;2023-01-09T06:17:05;7.30;99.90
26703;DHT22;14316;51.074;3.704;2023-01-09T06:19:31;7.30;99.90
26703;DHT22;14316;51.074;3.704;2023-01-09T06:21:56;7.40;99.90
26703;DHT22;14316;51.074;3.704;2023-01-09T06:24:22;7.30;99.90
26703;DHT22;14316;51.074;3.704;2023-01-09T06:26:48;7.30;99.90
26703;DHT22;14316;51.074;3.704;2023-01-09T06:29:13;7.30;99.90
26703;DHT22;14316;51.074;3.704;2023-01-09T06:31:39;7.30;99.90
26703;DHT22;14316;51.074;3.704;2023-01-09T06:34:05;7.30;99.90
26703;DHT22;14316;51.074;3.704;2023-01-09T06:36:31;7.30;99.90
26703;DHT22;14316;51.074;3.704;2023-01-09T06:38:57;7.30;99.90
26703;DHT22;14316;51.074;3.704;2023-01-09T06:41:23;7.30;99.90
26703;DHT22;14316;51.074;3.704;2023-01-09T06:43:48;7.30;99.90
26703;DHT22;14316;51.074;3.704;2023-01-09T06:46:15;7.30;99.90
26703;DHT22;14316;51.074;3.704;2023-01-09T06:48:40;7.20;99.90
26703;DHT22;14316;51.074;3.704;2023-01-09T06:51:07;7.20;99.90
26703;DHT22;14316;51.074;3.704;2023-01-09T06:53:33;7.20;99.90
26703;DHT22;14316;51.074;3.704;2023-01-09T06:55:59;7.20;99.90
26703;DHT22;14316;51.074;3.704;2023-01-09T06:58:27;7.20;99.90
26703;DHT22;14316;51.074;3.704;2023-01-09T07:00:53;7.10;99.90
26703;DHT22;14316;51.074;3.704;2023-01-09T07:03:20;7.10;99.90
26703;DHT22;14316;51.074;3.704;2023-01-09T07:05:48;7.10;99.90
26703;DHT22;14316;51.074;3.704;2023-01-09T07:08:14;7.20;99.90
26703;DHT22;14316;51.074;3.704;2023-01-09T07:10:41;7.10;99.90
26703;DHT22;14316;51.074;3.704;2023-01-09T07:13:07;7.20;99.90
26703;DHT22;14316;51.074;3.704;2023-01-09T07:15:32;7.20;99.90
26703;DHT22;14316;51.074;3.704;2023-01-09T07:17:58;7.20;99.90
26703;DHT22;14316;51.074;3.704;2023-01-09T07:20:24;7.20;99.90
26703;DHT22;14316;51.074;3.704;2023-01-09T07:22:49;7.20;99.90
26703;DHT22;14316;51.074;3.704;2023-01-09T07:25:15;7.20;99.90
26703;DHT22;14316;51.074;3.704;2023-01-09T07:27:41;7.20;99.90
26703;DHT22;14316;51.074;3.704;2023-01-09T07:30:07;7.30;99.90
26703;DHT22;14316;51.074;3.704;2023-01-09T07:32:33;7.30;99.90
26703;DHT22;14316;51.074;3.704;2023-01-09T07:34:59;7.30;99.90
26703;DHT22;14316;51.074;3.704;2023-01-09T07:37:25;7.30;99.90
26703;DHT22;14316;51.074;3.704;2023-01-09T07:39:52;7.50;99.90
26703;DHT22;14316;51.074;3.704;2023-01-09T07:42:17;7.30;99.90
26703;DHT22;14316;51.074;3.704;2023-01-09T07:44:43;7.30;99.90
26703;DHT22;14316;51.074;3.704;2023-01-09T07:47:10;7.30;99.90
26703;DHT22;14316;51.074;3.704;2023-01-09T07:49:35;7.30;99.90
26703;DHT22;14316;51.074;3.704;2023-01-09T07:52:01;7.30;99.90
26703;DHT22;14316;51.074;3.704;2023-01-09T07:54:27;7.30;99.90
26703;DHT22;14316;51.074;3.704;2023-01-09T07:56:53;7.30;99.90
26703;DHT22;14316;51.074;3.704;2023-01-09T07:59:18;7.30;99.90
26703;DHT22;14316;51.074;3.704;2023-01-09T08:01:44;7.30;99.90
26703;DHT22;14316;51.074;3.704;2023-01-09T08:04:10;7.40;99.90
26703;DHT22;14316;51.074;3.704;2023-01-09T08:06:35;7.40;99.90
26703;DHT22;14316;51.074;3.704;2023-01-09T08:09:01;7.40;99.90
26703;DHT22;14316;51.074;3.704;2023-01-09T08:11:28;7.40;99.90
26703;DHT22;14316;51.074;3.704;2023-01-09T08:13:53;7.40;99.90
26703;DHT22;14316;51.074;3.704;2023-01-09T08:16:19;7.30;99.90
26703;DHT22;14316;51.074;3.704;2023-01-09T08:18:45;7.20;99.90
26703;DHT22;14316;51.074;3.704;2023-01-09T08:21:11;7.30;99.90
26703;DHT22;14316;51.074;3.704;2023-01-09T08:23:38;7.30;99.90
26703;DHT22;14316;51.074;3.704;2023-01-09T08:26:04;7.20;99.90
26703;DHT22;14316;51.074;3.704;2023-01-09T08:28:31;7.20;99.90
26703;DHT22;14316;51.074;3.704;2023-01-09T08:30:57;7.20;99.90
26703;DHT22;14316;51.074;3.704;2023-01-09T08:33:23;7.20;99.90
26703;DHT22;14316;51.074;3.704;2023-01-09T08:35:49;7.20;99.90
26703;DHT22;14316;51.074;3.704;2023-01-09T08:38:15;7.40;99.90
26703;DHT22;14316;51.074;3.704;2023-01-09T08:40:40;7.30;99.90
26703;DHT22;14316;51.074;3.704;2023-01-09T08:43:07;7.40;99.90
26703;DHT22;14316;51.074;3.704;2023-01-09T08:45:51;7.30;99.90
26703;DHT22;14316;51.074;3.704;2023-01-09T08:48:35;7.30;99.90
26703;DHT22;14316;51.074;3.704;2023-01-09T08:51:02;7.30;99.90
26703;DHT22;14316;51.074;3.704;2023-01-09T08:53:28;7.30;99.90
26703;DHT22;14316;51.074;3.704;2023-01-09T08:55:55;7.30;99.90
26703;DHT22;14316;51.074;3.704;2023-01-09T08:58:21;7.40;99.90
26703;DHT22;14316;51.074;3.704;2023-01-09T09:00:47;7.30;99.90
26703;DHT22;14316;51.074;3.704;2023-01-09T09:03:13;7.40;99.90
26703;DHT22;14316;51.074;3.704;2023-01-09T09:05:38;7.40;99.90
26703;DHT22;14316;51.074;3.704;2023-01-09T09:08:04;7.40;99.90
26703;DHT22;14316;51.074;3.704;2023-01-09T09:10:31;7.40;99.90
26703;DHT22;14316;51.074;3.704;2023-01-09T09:12:58;7.40;99.90
26703;DHT22;14316;51.074;3.704;2023-01-09T09:15:24;7.40;99.90
26703;DHT22;14316;51.074;3.704;2023-01-09T09:17:53;7.70;99.90
26703;DHT22;14316;51.074;3.704;2023-01-09T09:20:21;7.50;99.90
26703;DHT22;14316;51.074;3.704;2023-01-09T09:22:47;7.40;99.90
26703;DHT22;14316;51.074;3.704;2023-01-09T09:25:14;7.40;99.90
26703;DHT22;14316;51.074;3.704;2023-01-09T09:27:41;7.40;99.90
26703;DHT22;14316;51.074;3.704;2023-01-09T09:30:08;7.50;99.90
26703;DHT22;14316;51.074;3.704;2023-01-09T09:32:36;7.50;99.90
26703;DHT22;14316;51.074;3.704;2023-01-09T09:35:03;7.50;99.90
26703;DHT22;14316;51.074;3.704;2023-01-09T09:37:29;7.50;99.90
26703;DHT22;14316;51.074;3.704;2023-01-09T09:39:56;7.60;99.90
26703;DHT22;14316;51.074;3.704;2023-01-09T09:42:42;7.50;99.90
26703;DHT22;14316;51.074;3.704;2023-01-09T09:51:38;7.60;99.90
26703;DHT22;14316;51.074;3.704;2023-01-09T09:53:50;7.60;99.90
26703;DHT22;14316;51.074;3.704;2023-01-09T09:56:21;7.80;99.90
26703;DHT22;14316;51.074;3.704;2023-01-09T10:01:22;7.60;99.90
26703;DHT22;14316;51.074;3.704;2023-01-09T10:03:51;7.70;99.90
26703;DHT22;14316;51.074;3.704;2023-01-09T10:06:28;7.70;99.90
26703;DHT22;14316;51.074;3.704;2023-01-09T10:10:14;7.70;99.90
26703;DHT22;14316;51.074;3.704;2023-01-09T10:12:44;7.70;99.90
26703;DHT22;14316;51.074;3.704;2023-01-09T10:15:34;7.70;99.90
26703;DHT22;14316;51.074;3.704;2023-01-09T10:18:33;7.70;99.90
26703;DHT22;14316;51.074;3.704;2023-01-09T10:21:28;7.80;99.90
26703;DHT22;14316;51.074;3.704;2023-01-09T10:26:45;7.80;99.90
26703;DHT22;14316;51.074;3.704;2023-01-09T10:29:22;7.80;99.90
26703;DHT22;14316;51.074;3.704;2023-01-09T10:35:12;7.80;99.90
26703;DHT22;14316;51.074;3.704;2023-01-09T10:37:45;7.80;99.90
26703;DHT22;14316;51.074;3.704;2023-01-09T10:42:46;7.90;99.90
26703;DHT22;14316;51.074;3.704;2023-01-09T10:47:39;7.90;99.90
26703;DHT22;14316;51.074;3.704;2023-01-09T10:50:19;8.00;99.90
26703;DHT22;14316;51.074;3.704;2023-01-09T10:52:45;8.10;99.90
26703;DHT22;14316;51.074;3.704;2023-01-09T10:57:48;8.20;99.90
26703;DHT22;14316;51.074;3.704;2023-01-09T11:00:17;8.20;99.90
26703;DHT22;14316;51.074;3.704;2023-01-09T11:02:44;8.30;99.90
26703;DHT22;14316;51.074;3.704;2023-01-09T11:05:13;8.20;99.90
26703;DHT22;14316;51.074;3.704;2023-01-09T11:07:42;8.30;99.90
26703;DHT22;14316;51.074;3.704;2023-01-09T11:10:10;8.20;99.90
26703;DHT22;14316;51.074;3.704;2023-01-09T11:12:37;8.20;99.90
26703;DHT22;14316;51.074;3.704;2023-01-09T11:17:41;8.20;99.90
26703;DHT22;14316;51.074;3.704;2023-01-09T11:20:27;8.20;99.90
26703;DHT22;14316;51.074;3.704;2023-01-09T11:22:55;8.30;99.90
26703;DHT22;14316;51.074;3.704;2023-01-09T11:25:26;8.30;99.90
26703;DHT22;14316;51.074;3.704;2023-01-09T11:30:36;8.30;99.90
26703;DHT22;14316;51.074;3.704;2023-01-09T11:33:16;8.30;99.90
26703;DHT22;14316;51.074;3.704;2023-01-09T11:38:31;8.30;99.90
26703;DHT22;14316;51.074;3.704;2023-01-09T11:41:16;8.40;99.90
26703;DHT22;14316;51.074;3.704;2023-01-09T11:43:44;8.40;99.90
26703;DHT22;14316;51.074;3.704;2023-01-09T11:48:56;8.60;99.90
26703;DHT22;14316;51.074;3.704;2023-01-09T11:51:30;8.60;99.90
26703;DHT22;14316;51.074;3.704;2023-01-09T11:56:41;8.80;99.90
26703;DHT22;14316;51.074;3.704;2023-01-09T11:59:12;8.80;99.90
26703;DHT22;14316;51.074;3.704;2023-01-09T12:12:25;9.30;99.90
26703;DHT22;14316;51.074;3.704;2023-01-09T12:15:16;9.20;99.90
26703;DHT22;14316;51.074;3.704;2023-01-09T12:26:35;9.50;99.90
26703;DHT22;14316;51.074;3.704;2023-01-09T12:40:16;9.70;99.90
26703;DHT22;14316;51.074;3.704;2023-01-09T12:42:58;9.80;99.90
26703;DHT22;14316;51.074;3.704;2023-01-09T12:45:37;9.70;99.90
26703;DHT22;14316;51.074;3.704;2023-01-09T12:53:36;9.70;99.90
26703;DHT22;14316;51.074;3.704;2023-01-09T12:56:19;9.40;99.90
26703;DHT22;14316;51.074;3.704;2023-01-09T13:01:27;9.10;99.90
26703;DHT22;14316;51.074;3.704;2023-01-09T13:06:29;8.30;99.90
26703;DHT22;14316;51.074;3.704;2023-01-09T13:09:17;7.90;99.90
26703;DHT22;14316;51.074;3.704;2023-01-09T13:12:07;7.80;99.90
26703;DHT22;14316;51.074;3.704;2023-01-09T13:14:55;7.70;99.90
26703;DHT22;14316;51.074;3.704;2023-01-09T13:17:41;7.70;99.90
26703;DHT22;14316;51.074;3.704;2023-01-09T13:20:20;7.70;99.90
26703;DHT22;14316;51.074;3.704;2023-01-09T13:22:48;7.70;99.90
26703;DHT22;14316;51.074;3.704;2023-01-09T13:28:04;7.70;99.90
26703;DHT22;14316;51.074;3.704;2023-01-09T13:30:57;7.60;99.90
26703;DHT22;14316;51.074;3.704;2023-01-09T13:33:34;7.60;99.90
26703;DHT22;14316;51.074;3.704;2023-01-09T13:36:00;7.70;99.90
26703;DHT22;14316;51.074;3.704;2023-01-09T13:38:32;7.70;99.90
26703;DHT22;14316;51.074;3.704;2023-01-09T13:44:01;7.70;99.90
26703;DHT22;14316;51.074;3.704;2023-01-09T13:46:48;7.70;99.90
26703;DHT22;14316;51.074;3.704;2023-01-09T13:52:32;7.80;99.90
26703;DHT22;14316;51.074;3.704;2023-01-09T13:55:00;7.90;99.90
26703;DHT22;14316;51.074;3.704;2023-01-09T13:57:34;8.20;99.90
26703;DHT22;14316;51.074;3.704;2023-01-09T14:08:21;8.40;99.90
26703;DHT22;14316;51.074;3.704;2023-01-09T14:10:59;8.50;99.90
26703;DHT22;14316;51.074;3.704;2023-01-09T14:13:31;8.40;99.90
26703;DHT22;14316;51.074;3.704;2023-01-09T14:16:21;8.40;99.90
26703;DHT22;14316;51.074;3.704;2023-01-09T14:18:52;8.20;99.90
26703;DHT22;14316;51.074;3.704;2023-01-09T14:21:18;8.10;99.90
26703;DHT22;14316;51.074;3.704;2023-01-09T14:26:45;8.10;99.90
26703;DHT22;14316;51.074;3.704;2023-01-09T14:35:26;8.00;99.90
26703;DHT22;14316;51.074;3.704;2023-01-09T14:40:47;8.00;99.90
26703;DHT22;14316;51.074;3.704;2023-01-09T14:43:22;8.00;99.90
26703;DHT22;14316;51.074;3.704;2023-01-09T14:45:49;8.10;99.90
26703;DHT22;14316;51.074;3.704;2023-01-09T14:48:15;8.10;99.90
26703;DHT22;14316;51.074;3.704;2023-01-09T14:50:52;8.10;99.90
26703;DHT22;14316;51.074;3.704;2023-01-09T14:53:26;8.10;99.90
26703;DHT22;14316;51.074;3.704;2023-01-09T14:55:55;8.20;99.90
26703;DHT22;14316;51.074;3.704;2023-01-09T14:58:29;8.20;99.90
26703;DHT22;14316;51.074;3.704;2023-01-09T15:01:17;8.20;99.90
26703;DHT22;14316;51.074;3.704;2023-01-09T15:03:56;8.20;99.90
26703;DHT22;14316;51.074;3.704;2023-01-09T15:06:27;8.10;99.90
26703;DHT22;14316;51.074;3.704;2023-01-09T15:09:11;7.90;99.90
26703;DHT22;14316;51.074;3.704;2023-01-09T15:11:41;7.80;99.90
26703;DHT22;14316;51.074;3.704;2023-01-09T15:14:32;7.60;99.90
26703;DHT22;14316;51.074;3.704;2023-01-09T15:16:59;7.50;99.90
26703;DHT22;14316;51.074;3.704;2023-01-09T15:19:26;7.50;99.90
26703;DHT22;14316;51.074;3.704;2023-01-09T15:22:04;7.50;99.90
26703;DHT22;14316;51.074;3.704;2023-01-09T15:24:32;7.40;99.90
26703;DHT22;14316;51.074;3.704;2023-01-09T15:27:03;7.40;99.90
26703;DHT22;14316;51.074;3.704;2023-01-09T15:29:29;7.40;99.90
26703;DHT22;14316;51.074;3.704;2023-01-09T15:32:03;7.30;99.90
26703;DHT22;14316;51.074;3.704;2023-01-09T15:34:31;7.20;99.90
26703;DHT22;14316;51.074;3.704;2023-01-09T15:36:57;7.20;99.90
26703;DHT22;14316;51.074;3.704;2023-01-09T15:39:26;7.20;99.90
26703;DHT22;14316;51.074;3.704;2023-01-09T15:41:54;7.20;99.90
26703;DHT22;14316;51.074;3.704;2023-01-09T15:44:41;7.20;99.90
26703;DHT22;14316;51.074;3.704;2023-01-09T15:47:14;7.10;99.90
26703;DHT22;14316;51.074;3.704;2023-01-09T15:49:41;7.10;99.90
26703;DHT22;14316;51.074;3.704;2023-01-09T15:52:11;7.10;99.90
26703;DHT22;14316;51.074;3.704;2023-01-09T15:54:40;7.10;99.90
26703;DHT22;14316;51.074;3.704;2023-01-09T16:00:21;7.10;99.90
26703;DHT22;14316;51.074;3.704;2023-01-09T16:02:42;7.00;99.90
26703;DHT22;14316;51.074;3.704;2023-01-09T16:05:27;7.00;99.90
26703;DHT22;14316;51.074;3.704;2023-01-09T16:07:55;7.00;99.90
26703;DHT22;14316;51.074;3.704;2023-01-09T16:10:29;7.00;99.90
26703;DHT22;14316;51.074;3.704;2023-01-09T16:12:57;7.00;99.90
26703;DHT22;14316;51.074;3.704;2023-01-09T16:15:23;7.10;99.90
26703;DHT22;14316;51.074;3.704;2023-01-09T16:20:41;7.10;99.90
26703;DHT22;14316;51.074;3.704;2023-01-09T16:23:30;7.10;99.90
26703;DHT22;14316;51.074;3.704;2023-01-09T16:26:13;7.00;99.90
26703;DHT22;14316;51.074;3.704;2023-01-09T16:28:44;7.00;99.90
26703;DHT22;14316;51.074;3.704;2023-01-09T16:31:28;7.00;99.90
26703;DHT22;14316;51.074;3.704;2023-01-09T16:34:01;7.00;99.90
26703;DHT22;14316;51.074;3.704;2023-01-09T16:36:29;7.00;99.90
26703;DHT22;14316;51.074;3.704;2023-01-09T16:38:56;7.00;99.90
26703;DHT22;14316;51.074;3.704;2023-01-09T16:41:22;7.00;99.90
26703;DHT22;14316;51.074;3.704;2023-01-09T16:44:08;7.00;99.90
26703;DHT22;14316;51.074;3.704;2023-01-09T16:46:41;7.00;99.90
26703;DHT22;14316;51.074;3.704;2023-01-09T16:49:19;7.00;99.90
26703;DHT22;14316;51.074;3.704;2023-01-09T16:51:47;7.00;99.90
26703;DHT22;14316;51.074;3.704;2023-01-09T16:54:13;7.10;99.90
26703;DHT22;14316;51.074;3.704;2023-01-09T16:56:40;7.10;99.90
26703;DHT22;14316;51.074;3.704;2023-01-09T16:59:12;7.10;99.90
26703;DHT22;14316;51.074;3.704;2023-01-09T17:01:39;7.00;99.90
26703;DHT22;14316;51.074;3.704;2023-01-09T17:04:10;7.00;99.90
26703;DHT22;14316;51.074;3.704;2023-01-09T17:06:36;6.90;99.90
26703;DHT22;14316;51.074;3.704;2023-01-09T17:09:03;6.90;99.90
26703;DHT22;14316;51.074;3.704;2023-01-09T17:11:30;6.90;99.90
26703;DHT22;14316;51.074;3.704;2023-01-09T17:14:02;6.80;99.90
26703;DHT22;14316;51.074;3.704;2023-01-09T17:16:29;6.70;99.90
26703;DHT22;14316;51.074;3.704;2023-01-09T17:18:55;6.70;99.90
26703;DHT22;14316;51.074;3.704;2023-01-09T17:21:23;6.60;99.90
26703;DHT22;14316;51.074;3.704;2023-01-09T17:23:49;6.70;99.90
26703;DHT22;14316;51.074;3.704;2023-01-09T17:26:35;6.70;99.90
26703;DHT22;14316;51.074;3.704;2023-01-09T17:29:21;6.70;99.90
26703;DHT22;14316;51.074;3.704;2023-01-09T17:31:46;6.80;99.90
26703;DHT22;14316;51.074;3.704;2023-01-09T17:34:12;6.80;99.90
26703;DHT22;14316;51.074;3.704;2023-01-09T17:36:38;6.90;99.90
26703;DHT22;14316;51.074;3.704;2023-01-09T17:39:03;6.90;99.90
26703;DHT22;14316;51.074;3.704;2023-01-09T17:41:31;6.90;99.90
26703;DHT22;14316;51.074;3.704;2023-01-09T17:43:58;6.90;99.90
26703;DHT22;14316;51.074;3.704;2023-01-09T17:46:35;6.90;99.90
26703;DHT22;14316;51.074;3.704;2023-01-09T17:49:02;7.00;99.90
26703;DHT22;14316;51.074;3.704;2023-01-09T17:51:29;6.90;99.90
26703;DHT22;14316;51.074;3.704;2023-01-09T17:53:56;6.90;99.90
26703;DHT22;14316;51.074;3.704;2023-01-09T17:56:28;7.00;99.90
26703;DHT22;14316;51.074;3.704;2023-01-09T17:58:54;7.00;99.90
26703;DHT22;14316;51.074;3.704;2023-01-09T18:01:20;7.00;99.90
26703;DHT22;14316;51.074;3.704;2023-01-09T18:03:47;7.00;99.90
26703;DHT22;14316;51.074;3.704;2023-01-09T18:06:16;6.90;99.90
26703;DHT22;14316;51.074;3.704;2023-01-09T18:08:42;7.00;99.90
26703;DHT22;14316;51.074;3.704;2023-01-09T18:11:12;6.90;99.90
26703;DHT22;14316;51.074;3.704;2023-01-09T18:13:41;6.80;99.90
26703;DHT22;14316;51.074;3.704;2023-01-09T18:16:11;6.80;99.90
26703;DHT22;14316;51.074;3.704;2023-01-09T18:18:38;6.80;99.90
26703;DHT22;14316;51.074;3.704;2023-01-09T18:21:05;6.80;99.90
26703;DHT22;14316;51.074;3.704;2023-01-09T18:23:31;6.80;99.90
26703;DHT22;14316;51.074;3.704;2023-01-09T18:25:57;6.80;99.90
26703;DHT22;14316;51.074;3.704;2023-01-09T18:28:23;6.70;99.90
26703;DHT22;14316;51.074;3.704;2023-01-09T18:30:50;6.70;99.90
26703;DHT22;14316;51.074;3.704;2023-01-09T18:33:15;6.70;99.90